createdAt,value
2018-06-02T04:03:43.846Z,468
2018-06-02T04:04:04.010Z,468
2018-06-02T04:11:10.975Z,532
2018-06-02T04:11:31.168Z,540
2018-06-02T04:11:51.352Z,548
2018-06-02T04:14:16.218Z,612
2018-06-02T04:14:36.488Z,624
2018-06-02T04:29:50.835Z,792
2018-06-02T04:30:10.953Z,792
2018-06-02T04:31:06.853Z,800
2018-06-02T04:33:58.553Z,836
2018-06-02T04:34:18.695Z,840
2018-06-02T04:36:45.820Z,836
2018-06-02T04:37:05.950Z,836
2018-06-02T04:39:08.254Z,820
2018-06-02T04:39:28.413Z,820
2018-06-02T04:41:43.013Z,832
2018-06-02T04:42:03.168Z,840
2018-06-02T04:42:23.467Z,844
2018-06-02T04:42:43.642Z,848
2018-06-02T04:43:03.803Z,852
2018-06-02T04:44:22.335Z,880
2018-06-02T04:44:42.500Z,888
2018-06-02T04:45:02.665Z,896
2018-06-02T04:45:22.840Z,904
2018-06-02T04:46:26.281Z,920
2018-06-02T04:46:46.433Z,928
2018-06-02T04:47:40.572Z,936
2018-06-02T04:48:00.715Z,940
2018-06-02T04:48:20.867Z,940
2018-06-02T04:48:41.019Z,944
2018-06-02T04:49:01.164Z,944
2018-06-02T04:50:09.565Z,952
2018-06-02T04:50:29.742Z,960
2018-06-02T04:50:49.908Z,960
2018-06-02T04:51:10.081Z,968
2018-06-02T04:51:30.241Z,980
2018-06-02T04:51:50.392Z,984
2018-06-02T04:52:10.559Z,992
2018-06-02T04:52:30.722Z,1000
2018-06-02T04:52:50.863Z,1012
2018-06-02T04:53:11.008Z,1020
2018-06-02T04:53:31.199Z,1032
2018-06-02T04:53:51.367Z,1044
2018-06-02T04:54:11.531Z,1056
2018-06-02T04:54:31.695Z,1068
2018-06-02T04:54:51.876Z,1076
2018-06-02T04:55:59.386Z,1112
2018-06-02T04:56:37.911Z,1128
2018-06-02T04:57:16.608Z,1148
2018-06-02T04:57:55.340Z,1164
2018-06-02T04:58:15.500Z,1168
2018-06-02T04:58:35.660Z,1176
2018-06-02T04:58:55.822Z,1180
2018-06-02T04:59:15.981Z,1188
2018-06-02T04:59:36.147Z,1192
2018-06-02T04:59:56.307Z,1204
2018-06-02T05:00:16.479Z,1204
2018-06-02T05:00:36.618Z,1212
2018-06-02T05:00:56.782Z,1216
2018-06-02T05:01:16.954Z,1220
2018-06-02T05:01:37.115Z,1228
2018-06-02T05:01:57.276Z,1232
2018-06-02T05:02:17.432Z,1236
2018-06-02T05:02:37.611Z,1240
2018-06-02T05:02:57.772Z,1244
2018-06-02T05:03:17.925Z,1244
2018-06-02T05:03:38.086Z,1260
2018-06-02T05:03:58.342Z,1256
2018-06-02T05:04:18.490Z,1256
2018-06-02T05:04:38.634Z,1256
2018-06-02T05:04:58.805Z,1256
2018-06-02T05:05:18.963Z,1256
2018-06-02T05:05:39.156Z,1256
2018-06-02T05:05:59.261Z,1260
2018-06-02T05:06:19.424Z,1260
2018-06-02T05:06:39.585Z,1260
2018-06-02T05:06:59.742Z,1264
2018-06-02T05:07:19.870Z,1256
2018-06-02T05:07:40.003Z,1252
2018-06-02T05:08:00.182Z,1252
2018-06-02T05:08:20.345Z,1248
2018-06-02T05:08:40.497Z,1240
2018-06-02T05:09:00.660Z,1236
2018-06-02T05:09:20.833Z,1240
2018-06-02T05:09:40.998Z,1228
2018-06-02T05:10:01.166Z,1228
2018-06-02T05:10:21.341Z,1224
2018-06-02T05:10:41.495Z,1224
2018-06-02T05:11:01.664Z,1228
2018-06-02T05:11:21.813Z,1232
2018-06-02T05:11:41.964Z,1236
2018-06-02T05:12:02.113Z,1240
2018-06-02T05:12:22.314Z,1244
2018-06-02T05:12:42.516Z,1252
2018-06-02T05:13:02.700Z,1260
2018-06-02T05:13:22.851Z,1256
2018-06-02T05:13:43.126Z,1264
2018-06-02T05:14:03.287Z,1268
2018-06-02T05:14:23.454Z,1276
2018-06-02T05:14:43.614Z,1284
2018-06-02T05:15:03.806Z,1292
2018-06-02T05:15:23.982Z,1300
2018-06-02T05:15:44.156Z,1308
2018-06-02T05:16:04.351Z,1324
2018-06-02T05:16:24.499Z,1332
2018-06-02T05:16:44.659Z,1332
2018-06-02T05:17:04.825Z,1340
2018-06-02T05:17:24.989Z,1340
2018-06-02T05:17:45.178Z,1340
2018-06-02T05:18:05.347Z,1344
2018-06-02T05:18:25.507Z,1344
2018-06-02T05:18:45.669Z,1348
2018-06-02T05:19:05.888Z,1348
2018-06-02T05:19:26.028Z,1352
2018-06-02T05:19:46.168Z,1356
2018-06-02T05:20:06.377Z,1372
2018-06-02T05:20:26.546Z,1388
2018-06-02T05:20:46.710Z,1400
2018-06-02T05:21:06.888Z,1420
2018-06-02T05:21:27.040Z,1424
2018-06-02T05:21:47.216Z,1432
2018-06-02T05:22:07.456Z,1448
2018-06-02T05:22:27.630Z,1456
2018-06-02T05:22:47.803Z,1468
2018-06-02T05:23:07.992Z,1480
2018-06-02T05:23:28.161Z,1492
2018-06-02T05:23:48.330Z,1500
2018-06-02T05:24:08.584Z,1512
2018-06-02T05:24:28.735Z,1524
2018-06-02T05:24:48.868Z,1520
2018-06-02T05:25:09.040Z,1536
2018-06-02T05:25:29.189Z,1536
2018-06-02T05:25:49.366Z,1544
2018-06-02T05:26:09.542Z,1532
2018-06-02T05:26:29.709Z,1536
2018-06-02T05:26:49.860Z,1536
2018-06-02T05:27:10.023Z,1528
2018-06-02T05:27:30.182Z,1520
2018-06-02T05:27:50.338Z,1516
2018-06-02T05:28:10.480Z,1512
2018-06-02T05:28:30.633Z,1512
2018-06-02T05:28:50.809Z,1512
2018-06-02T05:29:11.005Z,1516
2018-06-02T05:29:31.123Z,1520
2018-06-02T05:29:51.299Z,1528
2018-06-02T05:30:11.431Z,1544
2018-06-02T05:30:32.559Z,1548
2018-06-02T05:30:53.941Z,1552
2018-06-02T05:31:14.101Z,1548
2018-06-02T05:31:34.260Z,1532
2018-06-02T05:31:54.422Z,1528
2018-06-02T05:32:14.582Z,1532
2018-06-02T05:32:34.754Z,1540
2018-06-02T05:32:55.914Z,1532
2018-06-02T05:33:16.041Z,1540
2018-06-02T05:33:36.199Z,1536
2018-06-02T05:33:56.437Z,1540
2018-06-02T05:34:16.593Z,1536
2018-06-02T05:34:36.737Z,1548
2018-06-02T05:34:56.884Z,1540
2018-06-02T05:35:17.159Z,1544
2018-06-02T05:35:37.310Z,1544
2018-06-02T05:35:57.482Z,1552
2018-06-02T05:36:17.667Z,1552
2018-06-02T05:36:37.832Z,1552
2018-06-02T05:36:57.995Z,1564
2018-06-02T05:37:18.146Z,1568
2018-06-02T05:37:38.303Z,1572
2018-06-02T05:37:58.519Z,1572
2018-06-02T05:38:18.681Z,1564
2018-06-02T05:38:38.827Z,1564
2018-06-02T05:38:59.025Z,1564
2018-06-02T05:39:19.215Z,1564
2018-06-02T05:39:39.382Z,1568
2018-06-02T05:39:59.549Z,1572
2018-06-02T05:40:19.716Z,1568
2018-06-02T05:40:39.935Z,1576
2018-06-02T05:41:00.118Z,1584
2018-06-02T05:41:20.278Z,1592
2018-06-02T05:41:40.417Z,1604
2018-06-02T05:42:00.581Z,1616
2018-06-02T05:42:20.734Z,1620
2018-06-02T05:42:40.887Z,1624
2018-06-02T05:43:01.048Z,1640
2018-06-02T05:43:21.223Z,1644
2018-06-02T05:43:41.386Z,1656
2018-06-02T05:44:01.552Z,1664
2018-06-02T05:44:21.696Z,1680
2018-06-02T05:44:41.847Z,1684
2018-06-02T05:45:02.000Z,1692
2018-06-02T05:45:22.145Z,1700
2018-06-02T05:45:42.304Z,1708
2018-06-02T05:46:02.505Z,1716
2018-06-02T05:46:22.645Z,1724
2018-06-02T05:46:42.803Z,1728
2018-06-02T05:47:02.996Z,1728
2018-06-02T05:47:23.182Z,1736
2018-06-02T05:47:43.356Z,1740
2018-06-02T05:48:03.508Z,1744
2018-06-02T05:48:23.676Z,1748
2018-06-02T05:48:43.887Z,1756
2018-06-02T05:49:04.051Z,1760
2018-06-02T05:49:24.177Z,1764
2018-06-02T05:49:44.321Z,1772
2018-06-02T05:50:04.503Z,1780
2018-06-02T05:50:24.645Z,1776
2018-06-02T05:50:44.867Z,1776
2018-06-02T05:51:05.043Z,1780
2018-06-02T05:51:25.215Z,1780
2018-06-02T05:51:45.447Z,1776
2018-06-02T05:52:05.606Z,1772
2018-06-02T05:52:25.767Z,1764
2018-06-02T05:52:45.944Z,1764
2018-06-02T05:53:06.090Z,1756
2018-06-02T05:53:26.249Z,1748
2018-06-02T05:53:46.423Z,1744
2018-06-02T05:54:06.586Z,1736
2018-06-02T05:54:26.751Z,1732
2018-06-02T05:54:46.901Z,1728
2018-06-02T05:55:07.080Z,1724
2018-06-02T05:55:27.245Z,1724
2018-06-02T05:55:47.391Z,1724
2018-06-02T05:56:07.545Z,1720
2018-06-02T05:56:27.706Z,1720
2018-06-02T05:56:47.864Z,1720
2018-06-02T05:57:08.023Z,1720
2018-06-02T05:57:28.199Z,1724
2018-06-02T05:57:48.357Z,1740
2018-06-02T05:58:08.506Z,1740
2018-06-02T05:58:28.657Z,1740
2018-06-02T05:58:48.820Z,1740
2018-06-02T05:59:08.977Z,1736
2018-06-02T05:59:29.134Z,1736
2018-06-02T05:59:50.308Z,1732
2018-06-02T06:00:10.470Z,1724
2018-06-02T06:00:30.643Z,1704
2018-06-02T06:00:50.817Z,1692
2018-06-02T06:01:10.985Z,1684
2018-06-02T06:01:31.146Z,1676
2018-06-02T06:01:51.298Z,1668
2018-06-02T06:02:11.456Z,1664
2018-06-02T06:02:31.614Z,1672
2018-06-02T06:02:51.798Z,1680
2018-06-02T06:03:11.934Z,1688
2018-06-02T06:03:32.092Z,1692
2018-06-02T06:03:52.270Z,1700
2018-06-02T06:04:12.445Z,1720
2018-06-02T06:04:32.608Z,1728
2018-06-02T06:04:52.770Z,1740
2018-06-02T06:05:12.925Z,1756
2018-06-02T06:05:33.080Z,1768
2018-06-02T06:05:53.253Z,1772
2018-06-02T06:06:13.410Z,1780
2018-06-02T06:06:33.586Z,1784
2018-06-02T06:06:53.755Z,1788
2018-06-02T06:07:13.899Z,1792
2018-06-02T06:07:34.033Z,1796
2018-06-02T06:07:54.180Z,1800
2018-06-02T06:08:14.386Z,1804
2018-06-02T06:08:34.544Z,1812
2018-06-02T06:08:54.695Z,1824
2018-06-02T06:09:14.843Z,1824
2018-06-02T06:09:35.001Z,1836
2018-06-02T06:09:55.145Z,1840
2018-06-02T06:10:15.270Z,1852
2018-06-02T06:10:35.431Z,1860
2018-06-02T06:10:55.595Z,1864
2018-06-02T06:11:15.754Z,1888
2018-06-02T06:11:35.893Z,1872
2018-06-02T06:11:56.060Z,1872
2018-06-02T06:12:16.239Z,1864
2018-06-02T06:12:36.398Z,1856
2018-06-02T06:12:56.560Z,1844
2018-06-02T06:13:16.748Z,1832
2018-06-02T06:13:36.905Z,1820
2018-06-02T06:13:57.037Z,1816
2018-06-02T06:14:17.201Z,1816
2018-06-02T06:14:37.423Z,1820
2018-06-02T06:14:57.612Z,1812
2018-06-02T06:15:17.784Z,1800
2018-06-02T06:15:37.939Z,1788
2018-06-02T06:15:58.096Z,1788
2018-06-02T06:16:18.267Z,1788
2018-06-02T06:16:38.415Z,1788
2018-06-02T06:16:58.584Z,1780
2018-06-02T06:17:18.735Z,1776
2018-06-02T06:17:38.897Z,1776
2018-06-02T06:17:59.042Z,1776
2018-06-02T06:18:19.200Z,1776
2018-06-02T06:18:39.370Z,1776
2018-06-02T06:18:59.537Z,1780
2018-06-02T06:19:19.688Z,1784
2018-06-02T06:19:39.859Z,1780
2018-06-02T06:19:59.988Z,1784
2018-06-02T06:20:20.145Z,1780
2018-06-02T06:20:40.317Z,1776
2018-06-02T06:21:00.477Z,1768
2018-06-02T06:21:20.643Z,1764
2018-06-02T06:21:40.792Z,1756
2018-06-02T06:22:00.943Z,1748
2018-06-02T06:22:21.131Z,1740
2018-06-02T06:22:41.306Z,1736
2018-06-02T06:23:01.452Z,1724
2018-06-02T06:23:21.616Z,1712
2018-06-02T06:23:41.787Z,1696
2018-06-02T06:24:02.006Z,1684
2018-06-02T06:24:22.136Z,1660
2018-06-02T06:24:42.283Z,1640
2018-06-02T06:25:02.445Z,1628
2018-06-02T06:25:22.597Z,1624
2018-06-02T06:25:42.789Z,1612
2018-06-02T06:26:02.960Z,1604
2018-06-02T06:26:23.117Z,1576
2018-06-02T06:26:43.297Z,1548
2018-06-02T06:27:03.469Z,1532
2018-06-02T06:27:23.640Z,1516
2018-06-02T06:27:43.796Z,1516
2018-06-02T06:28:03.999Z,1516
2018-06-02T06:28:24.174Z,1496
2018-06-02T06:28:44.335Z,1484
2018-06-02T06:29:04.485Z,1500
2018-06-02T06:29:24.659Z,1508
2018-06-02T06:29:44.814Z,1500
2018-06-02T06:30:04.999Z,1496
2018-06-02T06:30:25.158Z,1500
2018-06-02T06:30:45.349Z,1512
2018-06-02T06:31:05.536Z,1548
2018-06-02T06:31:25.689Z,1560
2018-06-02T06:31:45.863Z,1560
2018-06-02T06:32:06.021Z,1568
2018-06-02T06:32:26.185Z,1568
2018-06-02T06:32:46.341Z,1572
2018-06-02T06:33:06.524Z,1576
2018-06-02T06:33:26.692Z,1592
2018-06-02T06:33:46.856Z,1608
2018-06-02T06:34:07.019Z,1616
2018-06-02T06:34:27.164Z,1612
2018-06-02T06:34:47.321Z,1620
2018-06-02T06:35:07.484Z,1636
2018-06-02T06:35:27.615Z,1644
2018-06-02T06:35:47.812Z,1660
2018-06-02T06:36:07.987Z,1672
2018-06-02T06:36:28.148Z,1696
2018-06-02T06:36:48.292Z,1716
2018-06-02T06:37:08.458Z,1732
2018-06-02T06:37:28.689Z,1752
2018-06-02T06:37:48.877Z,1764
2018-06-02T06:38:09.034Z,1772
2018-06-02T06:38:29.210Z,1788
2018-06-02T06:38:49.400Z,1804
2018-06-02T06:39:09.617Z,1816
2018-06-02T06:39:29.909Z,1820
2018-06-02T06:39:50.099Z,1820
2018-06-02T06:40:10.257Z,1816
2018-06-02T06:40:30.400Z,1812
2018-06-02T06:40:50.562Z,1792
2018-06-02T06:41:10.726Z,1776
2018-06-02T06:41:30.888Z,1764
2018-06-02T06:41:51.063Z,1748
2018-06-02T06:42:11.216Z,1728
2018-06-02T06:42:31.370Z,1708
2018-06-02T06:42:51.545Z,1688
2018-06-02T06:43:11.691Z,1676
2018-06-02T06:43:31.850Z,1660
2018-06-02T06:43:52.015Z,1660
2018-06-02T06:44:12.179Z,1648
2018-06-02T06:44:32.457Z,1644
2018-06-02T06:44:52.811Z,1632
2018-06-02T06:45:13.008Z,1628
2018-06-02T06:45:33.206Z,1624
2018-06-02T06:45:53.336Z,1620
2018-06-02T06:46:13.530Z,1608
2018-06-02T06:46:33.694Z,1612
2018-06-02T06:46:53.845Z,1612
2018-06-02T06:47:13.991Z,1612
2018-06-02T06:47:34.145Z,1604
2018-06-02T06:47:54.362Z,1592
2018-06-02T06:48:14.533Z,1580
2018-06-02T06:48:34.704Z,1580
2018-06-02T06:48:54.860Z,1576
2018-06-02T06:49:15.020Z,1572
2018-06-02T06:49:35.181Z,1572
2018-06-02T06:49:55.334Z,1572
2018-06-02T06:50:15.495Z,1572
2018-06-02T06:50:35.672Z,1564
2018-06-02T06:50:55.837Z,1564
2018-06-02T06:51:16.017Z,1560
2018-06-02T06:51:36.189Z,1556
2018-06-02T06:51:56.344Z,1552
2018-06-02T06:52:16.487Z,1540
2018-06-02T06:52:36.641Z,1524
2018-06-02T06:52:56.795Z,1516
2018-06-02T06:53:16.938Z,1512
2018-06-02T06:53:37.110Z,1508
2018-06-02T06:53:57.269Z,1508
2018-06-02T06:54:17.417Z,1516
2018-06-02T06:54:37.585Z,1532
2018-06-02T06:54:57.749Z,1540
2018-06-02T06:55:17.905Z,1544
2018-06-02T06:55:38.062Z,1548
2018-06-02T06:55:58.238Z,1548
2018-06-02T06:56:18.394Z,1552
2018-06-02T06:56:38.643Z,1560
2018-06-02T06:56:58.809Z,1564
2018-06-02T06:57:18.975Z,1572
2018-06-02T06:57:39.164Z,1580
2018-06-02T06:57:59.280Z,1592
2018-06-02T06:58:19.464Z,1600
2018-06-02T06:58:39.603Z,1616
2018-06-02T06:58:59.754Z,1620
2018-06-02T06:59:19.922Z,1628
2018-06-02T06:59:40.088Z,1640
2018-06-02T07:00:00.250Z,1644
2018-06-02T07:00:20.412Z,1652
2018-06-02T07:00:40.569Z,1664
2018-06-02T07:01:00.726Z,1668
2018-06-02T07:01:20.886Z,1684
2018-06-02T07:01:41.032Z,1700
2018-06-02T07:02:01.195Z,1708
2018-06-02T07:02:21.350Z,1724
2018-06-02T07:02:41.500Z,1740
2018-06-02T07:03:01.636Z,1748
2018-06-02T07:03:21.806Z,1768
2018-06-02T07:03:41.960Z,1780
2018-06-02T07:04:02.108Z,1796
2018-06-02T07:04:22.275Z,1800
2018-06-02T07:04:42.433Z,1832
2018-06-02T07:05:02.594Z,1880
2018-06-02T07:05:22.765Z,1884
2018-06-02T07:05:42.927Z,1848
2018-06-02T07:06:03.102Z,1872
2018-06-02T07:06:23.269Z,1936
2018-06-02T07:06:43.424Z,1992
2018-06-02T07:07:03.621Z,1980
2018-06-02T07:07:23.790Z,1924
2018-06-02T07:07:43.947Z,1892
2018-06-02T07:08:04.084Z,1880
2018-06-02T07:08:24.272Z,1876
2018-06-02T07:08:44.431Z,1872
2018-06-02T07:09:04.594Z,1888
2018-06-02T07:09:24.745Z,1904
2018-06-02T07:09:44.921Z,1944
2018-06-02T07:10:05.072Z,2260
2018-06-02T07:10:25.232Z,2560
2018-06-02T07:10:45.378Z,2384
2018-06-02T07:11:05.543Z,2332
2018-06-02T07:11:25.705Z,2312
2018-06-02T07:11:45.873Z,2424
2018-06-02T07:12:06.087Z,2568
2018-06-02T07:12:26.214Z,2660
2018-06-02T07:12:46.373Z,2556
2018-06-02T07:13:06.555Z,2432
2018-06-02T07:13:26.695Z,2688
2018-06-02T07:13:46.862Z,2760
2018-06-02T07:14:07.015Z,2520
2018-06-02T07:14:27.174Z,2200
2018-06-02T07:14:47.347Z,2224
2018-06-02T07:15:07.548Z,2300
2018-06-02T07:15:27.717Z,2100
2018-06-02T07:15:47.885Z,1908
2018-06-02T07:16:08.058Z,1868
2018-06-02T07:16:28.210Z,2076
2018-06-02T07:16:48.362Z,2212
2018-06-02T07:17:08.567Z,2176
2018-06-02T07:17:28.727Z,2252
2018-06-02T07:17:48.898Z,2188
2018-06-02T07:18:09.070Z,2280
2018-06-02T07:18:29.193Z,2352
2018-06-02T07:18:49.352Z,2312
2018-06-02T07:19:09.505Z,2308
2018-06-02T07:19:29.657Z,2344
2018-06-02T07:19:49.815Z,2240
2018-06-02T07:20:09.984Z,2160
2018-06-02T07:20:30.183Z,2176
2018-06-02T07:20:50.339Z,2272
2018-06-02T07:21:10.507Z,2316
2018-06-02T07:21:30.680Z,2364
2018-06-02T07:21:50.880Z,2432
2018-06-02T07:22:10.992Z,2464
2018-06-02T07:22:31.162Z,2520
2018-06-02T07:22:51.320Z,2488
2018-06-02T07:23:11.476Z,2460
2018-06-02T07:23:31.627Z,2432
2018-06-02T07:23:51.765Z,2436
2018-06-02T07:24:11.934Z,2428
2018-06-02T07:24:32.098Z,2428
2018-06-02T07:24:52.312Z,2464
2018-06-02T07:25:12.423Z,2504
2018-06-02T07:25:32.602Z,2496
2018-06-02T07:25:52.770Z,2428
2018-06-02T07:26:12.928Z,2432
2018-06-02T07:26:33.106Z,2460
2018-06-02T07:26:53.412Z,2864
2018-06-02T07:27:13.604Z,2916
2018-06-02T07:27:33.813Z,2932
2018-06-02T07:27:54.081Z,2752
2018-06-02T07:28:14.250Z,2640
2018-06-02T07:28:34.438Z,2720
2018-06-02T07:28:54.677Z,2840
2018-06-02T07:29:14.871Z,2820
2018-06-02T07:29:35.026Z,2664
2018-06-02T07:29:55.181Z,2604
2018-06-02T07:30:15.363Z,2652
2018-06-02T07:30:35.527Z,2632
2018-06-02T07:30:55.716Z,2620
2018-06-02T07:31:15.865Z,2600
2018-06-02T07:31:36.019Z,2604
2018-06-02T07:31:56.186Z,2592
2018-06-02T07:32:16.330Z,2616
2018-06-02T07:32:36.502Z,2512
2018-06-02T07:32:56.665Z,2516
2018-06-02T07:33:16.842Z,2600
2018-06-02T07:33:36.987Z,2620
2018-06-02T07:33:57.160Z,2552
2018-06-02T07:34:17.325Z,2408
2018-06-02T07:34:37.492Z,2336
2018-06-02T07:34:57.664Z,2312
2018-06-02T07:35:17.856Z,2324
2018-06-02T07:35:38.017Z,2404
2018-06-02T07:35:58.182Z,2368
2018-06-02T07:36:18.366Z,2368
2018-06-02T07:36:38.522Z,2332
2018-06-02T07:36:58.695Z,2292
2018-06-02T07:37:18.909Z,2284
2018-06-02T07:37:39.064Z,2240
2018-06-02T07:37:59.275Z,2160
2018-06-02T07:38:19.439Z,2280
2018-06-02T07:38:39.578Z,2380
2018-06-02T07:38:59.776Z,2496
2018-06-02T07:39:19.932Z,2756
2018-06-02T07:39:40.113Z,2848
2018-06-02T07:40:00.340Z,2872
2018-06-02T07:40:20.519Z,2664
2018-06-02T07:40:40.655Z,2508
2018-06-02T07:41:00.838Z,2508
2018-06-02T07:41:21.067Z,2440
2018-06-02T07:41:41.243Z,2424
2018-06-02T07:42:01.447Z,2508
2018-06-02T07:42:21.597Z,2476
2018-06-02T07:42:41.777Z,2680
2018-06-02T07:43:01.931Z,2676
2018-06-02T07:43:22.103Z,2660
2018-06-02T07:43:42.271Z,2492
2018-06-02T07:44:02.442Z,2540
2018-06-02T07:44:22.637Z,2464
2018-06-02T07:44:42.744Z,2412
2018-06-02T07:45:02.940Z,2404
2018-06-02T07:45:23.180Z,2372
2018-06-02T07:45:43.359Z,2396
2018-06-02T07:46:03.645Z,2484
2018-06-02T07:46:23.809Z,2708
2018-06-02T07:46:43.963Z,2864
2018-06-02T07:47:04.234Z,2836
2018-06-02T07:47:24.427Z,2664
2018-06-02T07:47:44.626Z,2572
2018-06-02T07:48:04.908Z,2864
2018-06-02T07:48:25.102Z,2996
2018-06-02T07:48:45.271Z,2992
2018-06-02T07:49:05.454Z,2848
2018-06-02T07:49:25.631Z,2636
2018-06-02T07:49:45.867Z,2680
2018-06-02T07:50:06.216Z,2956
2018-06-02T07:50:26.403Z,3024
2018-06-02T07:50:46.574Z,2984
2018-06-02T07:51:06.743Z,2812
2018-06-02T07:51:26.978Z,2788
2018-06-02T07:51:47.126Z,2588
2018-06-02T07:52:07.295Z,2304
2018-06-02T07:52:27.512Z,2160
2018-06-02T07:52:47.666Z,2212
2018-06-02T07:53:07.853Z,2372
2018-06-02T07:53:28.048Z,2572
2018-06-02T07:53:48.188Z,2604
2018-06-02T07:54:08.354Z,2500
2018-06-02T07:54:28.492Z,2352
2018-06-02T07:54:48.715Z,2200
2018-06-02T07:55:08.897Z,1976
2018-06-02T07:55:29.086Z,2012
2018-06-02T07:55:49.292Z,1952
2018-06-02T07:56:09.425Z,1976
2018-06-02T07:56:29.647Z,2020
2018-06-02T07:56:49.812Z,2032
2018-06-02T07:57:10.023Z,2000
2018-06-02T07:57:31.027Z,1960
2018-06-02T07:57:51.308Z,2236
2018-06-02T07:58:11.539Z,2340
2018-06-02T07:58:31.691Z,2412
2018-06-02T07:58:51.906Z,2424
2018-06-02T07:59:12.024Z,2468
2018-06-02T07:59:32.799Z,2392
2018-06-02T07:59:53.006Z,2396
2018-06-02T08:00:13.198Z,2300
2018-06-02T08:00:33.381Z,2320
2018-06-02T08:00:53.553Z,2568
2018-06-02T08:01:13.765Z,2948
2018-06-02T08:01:33.937Z,2988
2018-06-02T08:01:54.101Z,2736
2018-06-02T08:02:14.257Z,2420
2018-06-02T08:02:34.422Z,2284
2018-06-02T08:02:54.597Z,2384
2018-06-02T08:03:14.775Z,2548
2018-06-02T08:03:34.946Z,2504
2018-06-02T08:03:55.111Z,2388
2018-06-02T08:04:15.243Z,2124
2018-06-02T08:04:35.384Z,1984
2018-06-02T08:04:55.577Z,2004
2018-06-02T08:05:15.844Z,2248
2018-06-02T08:05:36.022Z,2576
2018-06-02T08:05:56.193Z,2764
2018-06-02T08:06:16.495Z,2744
2018-06-02T08:06:37.286Z,2532
2018-06-02T08:06:57.461Z,2404
2018-06-02T08:07:17.682Z,2328
2018-06-02T08:07:37.888Z,2196
2018-06-02T08:07:58.055Z,2064
2018-06-02T08:08:18.240Z,2060
2018-06-02T08:08:38.552Z,1972
2018-06-02T08:08:58.648Z,1900
2018-06-02T08:09:19.037Z,1856
2018-06-02T08:09:39.198Z,1768
2018-06-02T08:09:59.370Z,1604
2018-06-02T08:10:19.546Z,1496
2018-06-02T08:10:39.687Z,1420
2018-06-02T08:10:59.858Z,1404
2018-06-02T08:11:20.055Z,1540
2018-06-02T08:11:40.409Z,1676
2018-06-02T08:12:00.552Z,1860
2018-06-02T08:12:20.768Z,1884
2018-06-02T08:12:40.897Z,1748
2018-06-02T08:13:01.049Z,1584
2018-06-02T08:13:21.293Z,1552
2018-06-02T08:13:41.432Z,1544
2018-06-02T08:14:01.569Z,1616
2018-06-02T08:14:21.718Z,1616
2018-06-02T08:14:41.901Z,1572
2018-06-02T08:15:02.094Z,1412
2018-06-02T08:15:22.268Z,1428
2018-06-02T08:15:42.432Z,1452
2018-06-02T08:16:02.896Z,1468
2018-06-02T08:16:23.050Z,1616
2018-06-02T08:16:43.236Z,1616
2018-06-02T08:17:03.390Z,1648
2018-06-02T08:17:23.553Z,1716
2018-06-02T08:17:43.710Z,1912
2018-06-02T08:18:03.988Z,1876
2018-06-02T08:18:24.176Z,2012
2018-06-02T08:18:44.396Z,2048
2018-06-02T08:19:04.550Z,1896
2018-06-02T08:19:24.678Z,1768
2018-06-02T08:19:44.850Z,1624
2018-06-02T08:20:05.091Z,1600
2018-06-02T08:20:25.235Z,1688
2018-06-02T08:20:45.430Z,1908
2018-06-02T08:21:05.605Z,2100
2018-06-02T08:21:25.792Z,2212
2018-06-02T08:21:45.967Z,2068
2018-06-02T08:22:06.127Z,1932
2018-06-02T08:22:26.284Z,1764
2018-06-02T08:22:46.485Z,1776
2018-06-02T08:23:06.674Z,1788
2018-06-02T08:23:26.865Z,1756
2018-06-02T08:23:47.041Z,1888
2018-06-02T08:24:07.191Z,1980
2018-06-02T08:24:27.334Z,2124
2018-06-02T08:24:47.479Z,2232
2018-06-02T08:25:07.648Z,2292
2018-06-02T08:25:27.829Z,2364
2018-06-02T08:25:48.019Z,2508
2018-06-02T08:26:08.179Z,2352
2018-06-02T08:26:28.458Z,2388
2018-06-02T08:26:48.603Z,2240
2018-06-02T08:27:08.782Z,2144
2018-06-02T08:27:28.964Z,2096
2018-06-02T08:27:49.122Z,2060
2018-06-02T08:28:09.275Z,2028
2018-06-02T08:28:29.438Z,2008
2018-06-02T08:28:49.596Z,1996
2018-06-02T08:29:09.777Z,1968
2018-06-02T08:29:30.069Z,1908
2018-06-02T08:29:50.249Z,1824
2018-06-02T08:30:10.397Z,1820
2018-06-02T08:30:30.569Z,1868
2018-06-02T08:30:50.754Z,1868
2018-06-02T08:31:10.934Z,1852
2018-06-02T08:31:31.278Z,1832
2018-06-02T08:31:51.440Z,1860
2018-06-02T08:32:11.640Z,1936
2018-06-02T08:32:31.807Z,2040
2018-06-02T08:32:52.012Z,2176
2018-06-02T08:33:12.191Z,2268
2018-06-02T08:33:32.417Z,2304
2018-06-02T08:33:52.576Z,2376
2018-06-02T08:34:12.765Z,2348
2018-06-02T08:34:32.922Z,2376
2018-06-02T08:34:53.100Z,2236
2018-06-02T08:35:13.378Z,2108
2018-06-02T08:35:33.560Z,2004
2018-06-02T08:35:54.551Z,1972
2018-06-02T08:36:14.748Z,1980
2018-06-02T08:36:34.908Z,1996
2018-06-02T08:36:55.085Z,2028
2018-06-02T08:37:15.254Z,2072
2018-06-02T08:37:35.402Z,2064
2018-06-02T08:37:55.566Z,2084
2018-06-02T08:38:15.724Z,2192
2018-06-02T08:38:35.900Z,2320
2018-06-02T08:38:56.134Z,2256
2018-06-02T08:39:16.251Z,2392
2018-06-02T08:39:36.424Z,2464
2018-06-02T08:39:56.602Z,2552
2018-06-02T08:40:16.797Z,2588
2018-06-02T08:40:36.966Z,2536
2018-06-02T08:40:57.138Z,2504
2018-06-02T08:41:17.301Z,2516
2018-06-02T08:41:37.494Z,2488
2018-06-02T08:41:57.612Z,2432
2018-06-02T08:42:17.775Z,2364
2018-06-02T08:42:37.932Z,2396
2018-06-02T08:42:58.097Z,2392
2018-06-02T08:43:18.256Z,2340
2018-06-02T08:43:38.428Z,2440
2018-06-02T08:43:58.603Z,2460
2018-06-02T08:44:18.762Z,2356
2018-06-02T08:44:38.961Z,2276
2018-06-02T08:44:59.126Z,2188
2018-06-02T08:45:19.296Z,2136
2018-06-02T08:45:39.457Z,2124
2018-06-02T08:45:59.654Z,2144
2018-06-02T08:46:19.904Z,2164
2018-06-02T08:46:40.021Z,2140
2018-06-02T08:47:00.189Z,2060
2018-06-02T08:47:20.342Z,1964
2018-06-02T08:47:40.517Z,1896
2018-06-02T08:48:00.676Z,2048
2018-06-02T08:48:20.916Z,2136
2018-06-02T08:48:41.257Z,2060
2018-06-02T08:49:01.464Z,2088
2018-06-02T08:49:21.690Z,1976
2018-06-02T08:49:41.874Z,1748
2018-06-02T08:50:02.021Z,1640
2018-06-02T08:50:22.173Z,1744
2018-06-02T08:50:42.414Z,1828
2018-06-02T08:51:02.556Z,2040
2018-06-02T08:51:22.770Z,2136
2018-06-02T08:51:42.928Z,2080
2018-06-02T08:52:03.083Z,2036
2018-06-02T08:52:23.249Z,2040
2018-06-02T08:52:43.402Z,2056
2018-06-02T08:53:03.577Z,2052
2018-06-02T08:53:23.740Z,2144
2018-06-02T08:53:43.914Z,2272
2018-06-02T08:54:04.088Z,2312
2018-06-02T08:54:24.325Z,2236
2018-06-02T08:54:44.468Z,2216
2018-06-02T08:55:04.622Z,2260
2018-06-02T08:55:24.845Z,2232
2018-06-02T08:55:45.016Z,2224
2018-06-02T08:56:05.174Z,2264
2018-06-02T08:56:25.325Z,2316
2018-06-02T08:56:45.483Z,2180
2018-06-02T08:57:05.648Z,2160
2018-06-02T08:57:25.786Z,2052
2018-06-02T08:57:45.968Z,1932
2018-06-02T08:58:06.109Z,1816
2018-06-02T08:58:26.319Z,1792
2018-06-02T08:58:46.475Z,1832
2018-06-02T08:59:06.632Z,1828
2018-06-02T08:59:26.819Z,1980
2018-06-02T08:59:46.985Z,2012
2018-06-02T09:00:07.207Z,2024
2018-06-02T09:00:27.467Z,2112
2018-06-02T09:00:47.715Z,2020
2018-06-02T09:01:07.969Z,1892
2018-06-02T09:01:28.164Z,1692
2018-06-02T09:01:48.335Z,1536
2018-06-02T09:02:08.524Z,1568
2018-06-02T09:02:28.685Z,1572
2018-06-02T09:02:48.840Z,1604
2018-06-02T09:03:08.973Z,1692
2018-06-02T09:03:29.113Z,1652
2018-06-02T09:03:49.255Z,1700
2018-06-02T09:04:09.463Z,1776
2018-06-02T09:04:29.613Z,1900
2018-06-02T09:04:49.846Z,2072
2018-06-02T09:05:10.015Z,2268
2018-06-02T09:05:30.210Z,2484
2018-06-02T09:05:50.398Z,2648
2018-06-02T09:06:10.565Z,2748
2018-06-02T09:06:30.799Z,2872
2018-06-02T09:06:50.932Z,3024
2018-06-02T09:07:11.196Z,3120
2018-06-02T09:07:31.346Z,3128
2018-06-02T09:07:51.475Z,3092
2018-06-02T09:08:11.743Z,3068
2018-06-02T09:08:31.950Z,3044
2018-06-02T09:08:52.159Z,2944
2018-06-02T09:09:12.333Z,2856
2018-06-02T09:09:32.628Z,2720
2018-06-02T09:09:52.784Z,2592